Time;durP1;ratioP1;P1;durP2;ratioP2;P2;SDS_P1;SDS_P2;PMS_P1;PMS_P2;Temp;Humidity;BMP_temperature;BMP_pressure;BME280_temperature;BME280_humidity;BME280_pressure;Samples;Min_cycle;Max_cycle;Signal;HPM_P1;HPM_P2
2023/10/16 00:00:47;;;;;;;29.00;18.05;;;;;;;1.13;nan;102022.66;10357782;28;20057;-79
2023/10/16 00:05:51;;;;;;;32.38;19.45;;;;;;;1.08;nan;102022.16;10361637;28;20482;-79
2023/10/16 00:10:59;;;;;;;31.30;21.23;;;;;;;1.08;nan;102016.09;10358824;28;20053;-79
2023/10/16 00:16:02;;;;;;;37.28;20.40;;;;;;;0.98;nan;102012.56;10312940;28;20043;-79
2023/10/16 00:21:06;;;;;;;30.20;19.75;;;;;;;0.84;nan;102016.25;10348100;28;20468;-79
2023/10/16 00:26:07;;;;;;;31.30;22.30;;;;;;;0.70;nan;102014.81;10358104;28;20038;-79
2023/10/16 00:31:08;;;;;;;32.13;21.55;;;;;;;0.61;nan;102019.00;10340522;28;20037;-79
2023/10/16 00:36:09;;;;;;;33.00;20.98;;;;;;;0.62;nan;102015.66;10357082;28;20034;-79
2023/10/16 00:46:29;;;;;;;34.53;18.52;;;;;;;0.68;nan;102010.22;10354101;28;20045;-79
2023/10/16 00:51:32;;;;;;;30.73;21.75;;;;;;;0.64;nan;102014.16;10339910;28;20453;-79
2023/10/16 00:56:33;;;;;;;31.92;19.50;;;;;;;0.56;nan;102015.00;10342826;28;20064;-79
2023/10/16 01:01:33;;;;;;;30.20;22.13;;;;;;;0.61;nan;102015.47;10340084;28;20049;-79
2023/10/16 01:06:37;;;;;;;31.07;20.77;;;;;;;0.60;nan;102008.50;10281094;28;1165867;-79
2023/10/16 01:11:37;;;;;;;37.70;21.92;;;;;;;0.61;nan;102002.59;10358648;28;20046;-78
2023/10/16 01:16:38;;;;;;;34.25;21.33;;;;;;;0.72;nan;102004.66;10359631;28;20041;-79
2023/10/16 01:21:39;;;;;;;36.65;22.90;;;;;;;0.81;nan;101990.16;10320379;28;20073;-79
2023/10/16 01:26:42;;;;;;;36.80;22.02;;;;;;;0.78;nan;101983.78;10305756;28;20101;-78
2023/10/16 01:31:51;;;;;;;37.95;21.77;;;;;;;0.69;nan;101983.72;10307281;28;20486;-78
2023/10/16 01:36:52;;;;;;;35.22;22.50;;;;;;;0.69;nan;101983.72;10304681;28;20109;-78
2023/10/16 01:41:53;;;;;;;36.75;22.45;;;;;;;0.67;nan;101981.00;10318583;28;20038;-78
2023/10/16 01:46:53;;;;;;;38.22;21.88;;;;;;;0.66;nan;101983.38;10321358;28;20038;-78
2023/10/16 01:51:55;;;;;;;38.85;22.70;;;;;;;0.53;nan;101982.09;10354812;28;20068;-79
2023/10/16 01:56:56;;;;;;;34.67;23.30;;;;;;;0.50;nan;101980.88;10357737;28;20092;-78
2023/10/16 02:01:56;;;;;;;41.47;23.77;;;;;;;0.37;nan;101979.56;10356388;28;20096;-78
2023/10/16 02:06:57;;;;;;;42.08;23.83;;;;;;;0.43;nan;101975.06;10385533;28;20121;-78
2023/10/16 02:12:00;;;;;;;35.78;21.80;;;;;;;0.40;nan;101972.16;10316816;28;20532;-78
2023/10/16 02:17:03;;;;;;;40.40;25.88;;;;;;;0.35;nan;101967.25;10326923;28;20085;-78
2023/10/16 02:22:03;;;;;;;40.38;24.25;;;;;;;0.27;nan;101967.34;10329777;28;20064;-78
2023/10/16 02:27:09;;;;;;;51.78;26.15;;;;;;;0.23;nan;101964.31;10337465;28;20046;-78
2023/10/16 02:32:10;;;;;;;46.70;25.88;;;;;;;0.25;nan;101957.66;10360792;28;20497;-79
2023/10/16 02:37:13;;;;;;;42.60;26.02;;;;;;;0.25;nan;101948.25;10346644;28;20065;-79
2023/10/16 02:42:14;;;;;;;43.50;25.10;;;;;;;0.19;nan;101949.28;10346763;28;20373;-79
2023/10/16 02:47:21;;;;;;;44.42;26.40;;;;;;;0.19;nan;101954.44;10365345;28;20030;-79
2023/10/16 02:52:22;;;;;;;41.80;25.90;;;;;;;0.28;nan;101950.25;10347253;28;20117;-79
2023/10/16 02:57:22;;;;;;;50.53;28.25;;;;;;;0.27;nan;101957.06;10345653;28;20034;-79
2023/10/16 03:02:25;;;;;;;44.25;26.88;;;;;;;0.22;nan;101957.34;10362698;28;20042;-79
2023/10/16 03:07:26;;;;;;;50.30;29.90;;;;;;;0.14;nan;101959.06;10362995;28;20042;-79
2023/10/16 03:12:27;;;;;;;35.13;24.33;;;;;;;0.13;nan;101967.53;10361188;28;20072;-80
2023/10/16 03:17:36;;;;;;;47.40;26.92;;;;;;;0.09;nan;101960.25;10357206;28;20125;-79
2023/10/16 03:22:37;;;;;;;50.45;29.75;;;;;;;0.12;nan;101955.41;10346293;28;20404;-78
2023/10/16 03:27:42;;;;;;;49.47;28.60;;;;;;;0.06;nan;101957.34;10360963;28;20038;-81
2023/10/16 03:32:42;;;;;;;48.80;27.42;;;;;;;0.02;nan;101948.38;10362497;28;20049;-79
2023/10/16 03:37:43;;;;;;;50.20;31.70;;;;;;;0.07;nan;101947.22;10342875;28;20045;-80
2023/10/16 03:42:43;;;;;;;64.10;32.75;;;;;;;0.14;nan;101944.56;10373496;28;20486;-78
2023/10/16 03:47:44;;;;;;;62.63;31.95;;;;;;;0.24;nan;101949.00;10359986;28;20038;-79
2023/10/16 03:52:46;;;;;;;54.08;29.50;;;;;;;0.13;nan;101942.72;10342639;28;20490;-79
2023/10/16 03:57:47;;;;;;;48.58;30.83;;;;;;;0.03;nan;101937.34;10345478;28;20034;-82
2023/10/16 04:02:47;;;;;;;56.03;33.97;;;;;;;-0.12;nan;101934.00;10357205;28;20475;-78
2023/10/16 04:07:48;;;;;;;55.50;34.17;;;;;;;-0.11;nan;101937.53;10361992;28;20115;-80
2023/10/16 04:12:51;;;;;;;58.05;35.78;;;;;;;-0.19;nan;101935.03;10361894;28;20033;-79
2023/10/16 04:18:04;;;;;;;47.00;29.00;;;;;;;-0.10;nan;101932.53;10359656;28;20113;-79
2023/10/16 04:23:05;;;;;;;59.42;31.65;;;;;;;-0.14;nan;101934.63;10345105;28;20367;-79
2023/10/16 04:28:29;;;;;;;57.03;33.58;;;;;;;-0.11;nan;101930.69;10357164;28;20131;-79
2023/10/16 04:33:48;;;;;;;61.25;33.75;;;;;;;-0.05;nan;101927.88;10358919;28;20046;-78
2023/10/16 04:38:54;;;;;;;62.03;36.72;;;;;;;0.01;nan;101928.53;10358861;28;20042;-78
2023/10/16 04:49:14;;;;;;;60.97;36.15;;;;;;;-0.11;nan;101904.06;10359956;28;20469;-82
2023/10/16 04:54:16;;;;;;;60.70;33.45;;;;;;;-0.11;nan;101898.91;10343808;28;20041;-81
2023/10/16 05:15:37;;;;;;;53.53;33.42;;;;;;;-0.08;nan;101889.84;10356544;28;20414;-81
2023/10/16 06:14:10;;;;;;;65.43;37.72;;;;;;;0.68;nan;101895.19;10348120;28;20121;-83
2023/10/16 06:19:14;;;;;;;58.75;39.25;;;;;;;0.72;nan;101891.25;10347045;28;20042;-82
2023/10/16 06:24:25;;;;;;;66.45;38.28;;;;;;;0.67;nan;101895.94;10348257;28;20038;-84
2023/10/16 06:29:35;;;;;;;66.40;40.38;;;;;;;0.71;nan;101892.94;10361398;28;20049;-84
2023/10/16 06:34:36;;;;;;;78.15;42.05;;;;;;;0.86;nan;101888.44;10347698;28;20056;-82
2023/10/16 06:39:37;;;;;;;66.28;39.75;;;;;;;1.09;nan;101896.72;10355831;28;20046;-83
2023/10/16 06:44:37;;;;;;;78.25;41.72;;;;;;;1.32;nan;101891.31;10342389;28;20064;-80
2023/10/16 06:49:38;;;;;;;201.02;64.50;;;;;;;1.58;nan;101888.81;10338849;28;20050;-83
2023/10/16 06:54:39;;;;;;;200.52;55.90;;;;;;;1.80;nan;101888.34;10361163;28;20046;-83
2023/10/16 06:59:40;;;;;;;155.30;53.10;;;;;;;2.14;nan;101898.50;10359488;28;20038;-81
2023/10/16 07:04:44;;;;;;;93.03;54.00;;;;;;;2.32;nan;101900.31;10362256;28;20044;-83
2023/10/16 07:09:47;;;;;;;86.97;48.88;;;;;;;2.60;nan;101902.09;10343536;28;20034;-83
2023/10/16 07:15:01;;;;;;;136.85;52.97;;;;;;;2.61;nan;101897.03;10342590;28;20053;-82
2023/10/16 07:20:17;;;;;;;132.73;54.00;;;;;;;2.77;nan;101891.69;10348403;28;20041;-83
2023/10/16 07:25:24;;;;;;;82.65;46.35;;;;;;;2.97;nan;101894.34;10358793;28;20034;-84
2023/10/16 07:30:27;;;;;;;86.05;45.67;;;;;;;2.98;nan;101896.16;10345606;28;20041;-83
2023/10/16 07:35:27;;;;;;;;;;;;;;;3.29;nan;101889.63;10349929;28;20053;-82
2023/10/16 07:40:28;;;;;;;81.10;46.78;;;;;;;3.47;nan;101884.34;10367084;28;19928;-82
2023/10/16 07:45:32;;;;;;;68.80;43.58;;;;;;;3.79;nan;101889.88;10354343;28;20512;-82
2023/10/16 07:50:33;;;;;;;86.32;45.92;;;;;;;4.14;nan;101892.94;10343546;28;20050;-83
2023/10/16 07:55:50;;;;;;;91.10;46.47;;;;;;;4.58;nan;101895.09;10329900;28;20069;-81
2023/10/16 08:06:12;;;;;;;71.70;42.35;;;;;;;5.66;nan;101877.44;10344518;28;20044;-84
2023/10/16 08:11:20;;;;;;;82.88;44.45;;;;;;;6.04;nan;101876.28;10376872;28;20565;-84
2023/10/16 08:16:27;;;;;;;78.57;43.40;;;;;;;5.98;nan;101887.03;10359170;28;20052;-84
2023/10/16 08:21:28;;;;;;;62.67;41.17;;;;;;;6.38;nan;101879.03;10332530;28;20038;-80
2023/10/16 08:26:29;;;;;;;64.60;41.25;;;;;;;6.28;nan;101879.94;10357735;28;20095;-80
2023/10/16 08:31:32;;;;;;;58.88;37.72;;;;;;;6.13;nan;101879.63;10358250;28;20054;-80
2023/10/16 08:36:32;;;;;;;71.05;36.83;;;;;;;6.03;nan;101888.34;10354291;28;20478;-80
2023/10/16 08:41:42;;;;;;;55.50;34.78;;;;;;;6.28;nan;101895.56;10357610;28;20048;-80
2023/10/16 08:46:52;;;;;;;48.13;33.47;;;;;;;6.10;nan;101898.47;10344465;28;20034;-80
2023/10/16 08:51:54;;;;;;;49.65;32.90;;;;;;;6.68;nan;101898.75;10344262;28;20497;-80
2023/10/16 08:56:54;;;;;;;42.10;30.50;;;;;;;7.18;nan;101892.22;10326364;28;20034;-81
2023/10/16 09:01:55;;;;;;;35.08;24.38;;;;;;;6.81;nan;101886.72;10340006;28;20549;-81
2023/10/16 09:06:55;;;;;;;40.35;28.52;;;;;;;6.99;nan;101887.28;10359581;28;20038;-82
2023/10/16 09:12:10;;;;;;;32.53;22.92;;;;;;;7.35;nan;101875.31;10359648;28;20133;-81
2023/10/16 09:17:10;;;;;;;32.53;21.48;;;;;;;7.79;nan;101876.88;10336071;28;20045;-82
2023/10/16 09:22:12;;;;;;;34.42;23.25;;;;;;;7.67;nan;101861.22;10369412;28;20105;-81
2023/10/16 09:27:17;;;;;;;35.80;21.95;;;;;;;7.68;nan;101855.22;10349538;28;20109;-81
2023/10/16 09:32:20;;;;;;;37.90;23.08;;;;;;;8.16;nan;101855.25;10363677;28;20041;-81
2023/10/16 09:37:24;;;;;;;36.38;21.77;;;;;;;8.71;nan;101840.06;10374454;28;20034;-82
2023/10/16 09:42:24;;;;;;;31.77;21.77;;;;;;;9.29;nan;101824.03;10339115;28;20100;-81
2023/10/16 09:47:25;;;;;;;25.88;18.63;;;;;;;10.60;nan;101775.84;10360451;28;20125;-80
2023/10/16 09:52:33;;;;;;;22.33;14.85;;;;;;;13.20;nan;101791.34;10377703;28;20053;-80
2023/10/16 09:57:34;;;;;;;18.45;13.90;;;;;;;14.89;nan;101881.16;10359168;28;20470;-79
2023/10/16 10:02:39;;;;;;;17.55;13.52;;;;;;;17.00;nan;101961.34;10336297;28;20038;-81
2023/10/16 10:07:47;;;;;;;21.23;14.60;;;;;;;14.88;nan;101955.78;10340272;28;20049;-80
2023/10/16 10:12:50;;;;;;;18.92;13.63;;;;;;;14.69;nan;101935.56;10362211;28;20049;-86
2023/10/16 10:17:54;;;;;;;16.20;12.02;;;;;;;17.03;nan;101968.53;10329355;28;20125;-79
2023/10/16 10:23:06;;;;;;;15.88;9.63;;;;;;;17.67;nan;102010.56;10362920;28;20040;-79
2023/10/16 10:28:28;;;;;;;13.43;9.50;;;;;;;17.49;nan;101990.50;10341976;28;20030;-79
2023/10/16 10:33:38;;;;;;;12.73;9.02;;;;;;;18.70;nan;102015.00;10346282;28;20042;-79
2023/10/16 10:38:38;;;;;;;15.35;8.27;;;;;;;19.44;nan;102024.34;10361239;28;20042;-78
2023/10/16 10:43:57;;;;;;;13.73;7.95;;;;;;;19.36;nan;102011.75;10370707;28;20550;-78
2023/10/16 10:49:00;;;;;;;10.88;6.38;;;;;;;19.35;nan;102033.84;10355818;28;20502;-78
2023/10/16 10:54:06;;;;;;;11.50;5.40;;;;;;;19.04;nan;102030.25;10358412;28;20425;-77
2023/10/16 10:59:10;;;;;;;9.02;5.45;;;;;;;19.63;nan;102033.78;10364474;28;20068;-77
2023/10/16 11:04:15;;;;;;;6.72;3.28;;;;;;;19.73;nan;102041.16;10357507;28;20042;-80
2023/10/16 11:09:19;;;;;;;8.00;5.05;;;;;;;18.64;nan;102027.22;10349282;28;20042;-78
2023/10/16 11:14:36;;;;;;;8.43;4.03;;;;;;;17.87;nan;102008.66;10329196;28;20140;-77
2023/10/16 11:19:47;;;;;;;4.65;3.28;;;;;;;18.15;nan;102018.47;10390254;28;20037;-78
2023/10/16 11:24:48;;;;;;;6.72;3.47;;;;;;;18.66;nan;102013.09;10349811;28;20092;-78
2023/10/16 11:29:52;;;;;;;12.18;3.50;;;;;;;18.38;nan;102018.38;10366185;28;20116;-77
2023/10/16 11:35:13;;;;;;;6.88;4.18;;;;;;;19.17;nan;102009.41;10338958;28;20633;-81
2023/10/16 11:40:18;;;;;;;9.00;3.30;;;;;;;19.39;nan;102008.31;10372932;28;20505;-80
2023/10/16 11:45:20;;;;;;;2.78;1.63;;;;;;;19.85;nan;102005.16;10357008;28;20037;-81
2023/10/16 11:50:31;;;;;;;7.45;3.28;;;;;;;19.27;nan;102003.53;10342689;28;20496;-81
2023/10/16 11:55:36;;;;;;;6.70;3.03;;;;;;;19.26;nan;102004.38;10359469;28;20042;-81
2023/10/16 12:00:42;;;;;;;2.50;1.80;;;;;;;18.47;nan;102001.88;10357675;28;20042;-78
2023/10/16 12:05:43;;;;;;;5.55;2.00;;;;;;;17.87;nan;101987.47;10355405;28;20495;-78
2023/10/16 12:10:47;;;;;;;3.58;1.40;;;;;;;16.98;nan;101985.94;10341949;28;20128;-78
2023/10/16 12:15:47;;;;;;;3.30;2.35;;;;;;;16.81;nan;101982.59;10356035;28;20038;-78
2023/10/16 12:20:48;;;;;;;6.47;1.33;;;;;;;16.10;nan;101977.97;10359419;28;20085;-77
2023/10/16 12:25:49;;;;;;;5.55;1.60;;;;;;;16.23;nan;101963.50;10339731;28;20129;-76
2023/10/16 12:30:49;;;;;;;4.83;1.83;;;;;;;17.25;nan;101961.41;10367289;28;20100;-78
2023/10/16 12:35:50;;;;;;;5.68;1.75;;;;;;;17.79;nan;101957.16;10369511;28;20125;-79
2023/10/16 12:40:54;;;;;;;6.10;2.00;;;;;;;17.67;nan;101961.19;10355908;28;20124;-79
2023/10/16 12:45:57;;;;;;;6.28;1.80;;;;;;;18.32;nan;101949.25;10350251;28;20042;-79
2023/10/16 12:51:00;;;;;;;15.35;11.43;;;;;;;18.22;nan;101947.16;10354446;28;20087;-80
2023/10/16 12:56:05;;;;;;;4.07;2.97;;;;;;;18.09;nan;101949.41;10350044;28;20130;-79
2023/10/16 13:01:10;;;;;;;11.68;2.60;;;;;;;18.10;nan;101931.78;10327104;28;20034;-80
2023/10/16 13:06:11;;;;;;;8.95;1.85;;;;;;;17.79;nan;101933.34;10316399;28;20041;-80
2023/10/16 13:11:16;;;;;;;5.27;2.10;;;;;;;17.23;nan;101929.59;10372240;28;20474;-81
2023/10/16 13:16:24;;;;;;;4.95;2.47;;;;;;;16.21;nan;101915.94;10337132;28;20512;-83
2023/10/16 13:21:33;;;;;;;3.65;1.80;;;;;;;15.56;nan;101907.88;10331609;28;20045;-83
2023/10/16 13:26:36;;;;;;;4.25;2.30;;;;;;;15.51;nan;101909.41;10351640;28;20060;-82
2023/10/16 13:31:37;;;;;;;6.05;3.15;;;;;;;15.35;nan;101892.91;10344877;28;20474;-82
2023/10/16 13:36:38;;;;;;;8.87;2.57;;;;;;;15.14;nan;101898.09;10341834;28;20096;-80
2023/10/16 13:41:50;;;;;;;6.15;2.15;;;;;;;14.88;nan;101882.00;10368839;28;20528;-80
2023/10/16 13:46:53;;;;;;;9.43;2.45;;;;;;;15.01;nan;101867.66;10354407;28;20040;-80
2023/10/16 13:51:54;;;;;;;2.53;1.55;;;;;;;14.97;nan;101889.44;10370578;28;20041;-80
2023/10/16 13:56:54;;;;;;;5.05;2.03;;;;;;;14.72;nan;101874.22;10356904;28;20076;-79
2023/10/16 14:01:56;;;;;;;7.18;2.00;;;;;;;14.88;nan;101860.03;10361295;28;20074;-79
2023/10/16 14:06:56;;;;;;;5.60;1.92;;;;;;;14.23;nan;101871.00;10359869;28;20037;-79
2023/10/16 14:11:58;;;;;;;5.82;2.00;;;;;;;13.68;nan;101851.66;10344919;28;20399;-79
2023/10/16 14:17:37;;;;;;;3.67;1.63;;;;;;;13.18;nan;101835.94;10295670;28;20042;-79
2023/10/16 14:22:29;;;;;;;2.63;1.48;;;;;;;12.74;nan;101802.94;10346046;28;20037;-79
2023/10/16 14:27:30;;;;;;;2.35;1.30;;;;;;;12.57;nan;101784.56;10362549;28;20065;-80
2023/10/16 14:32:37;;;;;;;4.95;1.50;;;;;;;12.74;nan;101777.59;10341441;28;20129;-79
2023/10/16 14:37:40;;;;;;;4.13;1.10;;;;;;;13.11;nan;101809.25;10331979;28;20122;-79
2023/10/16 14:42:40;;;;;;;13.43;1.67;;;;;;;13.36;nan;101819.31;10339549;28;20125;-79
2023/10/16 14:47:43;;;;;;;2.97;1.00;;;;;;;13.67;nan;101815.66;10327727;28;20034;-79
2023/10/16 14:52:43;;;;;;;;;;;;;;;13.68;nan;101819.19;10326075;28;20403;-78
2023/10/16 14:57:43;;;;;;;3.83;0.90;;;;;;;13.87;nan;101829.81;10329779;28;19929;-77
2023/10/16 15:02:44;;;;;;;4.13;1.83;;;;;;;13.77;nan;101820.53;10349442;28;20569;-76
2023/10/16 15:07:44;;;;;;;1.88;1.30;;;;;;;12.49;nan;101799.00;10341224;28;20121;-77
2023/10/16 15:12:45;;;;;;;3.30;0.88;;;;;;;11.80;nan;101793.38;10331276;28;20042;-79
2023/10/16 15:17:45;;;;;;;2.45;1.05;;;;;;;11.47;nan;101767.91;10318482;28;20041;-80
2023/10/16 15:22:46;;;;;;;4.18;1.00;;;;;;;11.05;nan;101749.72;10335553;28;20121;-79
2023/10/16 15:27:47;;;;;;;4.30;1.60;;;;;;;10.71;nan;101743.38;10327047;28;20231;-79
2023/10/16 15:32:47;;;;;;;7.15;1.88;;;;;;;10.44;nan;101745.19;10360708;28;20066;-80
2023/10/16 15:37:48;;;;;;;1.83;0.90;;;;;;;10.11;nan;101719.59;10343697;28;20549;-80
2023/10/16 15:42:49;;;;;;;2.97;1.10;;;;;;;9.91;nan;101714.81;10357270;28;20221;-81
2023/10/16 15:47:50;;;;;;;2.13;0.90;;;;;;;9.61;nan;101705.06;10357741;28;20038;-80
2023/10/16 15:52:50;;;;;;;2.63;0.90;;;;;;;9.36;nan;101692.13;10359103;28;20155;-80
2023/10/16 15:57:52;;;;;;;2.22;0.85;;;;;;;9.09;nan;101673.81;10373834;28;20125;-77
2023/10/16 16:02:59;;;;;;;4.28;3.08;;;;;;;8.80;nan;101651.91;10358847;28;20100;-78
2023/10/16 16:08:00;;;;;;;2.47;0.90;;;;;;;8.48;nan;101638.41;10345597;28;20042;-80
2023/10/16 16:13:03;;;;;;;4.97;1.00;;;;;;;8.19;nan;101612.94;10333747;28;20038;-78
2023/10/16 16:18:11;;;;;;;4.22;1.50;;;;;;;7.91;nan;101593.66;10335858;28;20561;-81
2023/10/16 16:23:11;;;;;;;5.13;2.10;;;;;;;7.73;nan;101605.41;10348785;28;20034;-81
2023/10/16 16:28:12;;;;;;;2.30;1.17;;;;;;;7.51;nan;101606.47;10356035;28;20042;-82
2023/10/16 16:33:13;;;;;;;2.42;1.13;;;;;;;7.27;nan;101629.94;10369485;28;20124;-81
2023/10/16 16:38:13;;;;;;;5.53;2.67;;;;;;;6.95;nan;101641.47;10332181;28;20164;-81
2023/10/16 16:43:14;;;;;;;4.90;1.73;;;;;;;6.67;nan;101639.41;10337856;28;20061;-81
2023/10/16 16:48:16;;;;;;;14.68;2.03;;;;;;;6.58;nan;101646.50;10353906;28;20424;-82
2023/10/16 16:53:16;;;;;;;4.45;1.90;;;;;;;6.41;nan;101661.72;10369234;28;20038;-79
2023/10/16 16:58:17;;;;;;;6.55;1.90;;;;;;;6.20;nan;101663.56;10357966;28;20490;-79
2023/10/16 17:03:17;;;;;;;5.60;2.00;;;;;;;6.04;nan;101664.06;10371354;28;20493;-80
2023/10/16 17:08:20;;;;;;;2.58;1.20;;;;;;;5.78;nan;101656.78;10369287;28;20038;-78
2023/10/16 17:13:20;;;;;;;;;;;;;;;5.65;nan;101670.44;10369410;28;20050;-77
2023/10/16 17:18:21;;;;;;;6.38;2.45;;;;;;;5.44;nan;101667.94;10365963;28;20385;-78
2023/10/16 17:23:21;;;;;;;5.50;2.00;;;;;;;5.20;nan;101664.25;10359710;28;20046;-77
2023/10/16 17:28:22;;;;;;;3.92;1.75;;;;;;;5.05;nan;101667.41;10345108;28;20132;-78
2023/10/16 17:33:24;;;;;;;12.65;4.95;;;;;;;4.96;nan;101675.31;10336496;28;20548;-77
2023/10/16 17:38:24;;;;;;;6.88;2.60;;;;;;;4.88;nan;101686.75;10352981;28;20042;-77
2023/10/16 17:43:26;;;;;;;5.05;1.85;;;;;;;4.77;nan;101687.53;10360825;28;20125;-78
2023/10/16 17:48:27;;;;;;;;;;;;;;;4.82;nan;101676.78;10339425;28;20042;-78
2023/10/16 17:53:27;;;;;;;6.88;2.88;;;;;;;4.82;nan;101694.94;10374774;28;19921;-77
2023/10/16 17:58:28;;;;;;;8.45;4.95;;;;;;;4.80;nan;101699.06;10357958;28;20601;-78
2023/10/16 18:03:28;;;;;;;7.25;3.65;;;;;;;4.77;nan;101695.31;10374645;28;20096;-77
2023/10/16 18:08:29;;;;;;;7.72;4.65;;;;;;;4.67;nan;101693.63;10389672;28;20054;-77
2023/10/16 18:13:32;;;;;;;7.50;3.63;;;;;;;4.64;nan;101701.16;10325308;28;20049;-78
2023/10/16 18:18:33;;;;;;;9.30;3.80;;;;;;;4.54;nan;101702.97;10359579;28;20521;-77
2023/10/16 18:23:33;;;;;;;8.32;3.90;;;;;;;4.45;nan;101699.59;10349229;28;20038;-78
2023/10/16 18:28:36;;;;;;;6.78;4.18;;;;;;;4.44;nan;101694.25;10319677;28;20049;-78
2023/10/16 18:33:40;;;;;;;;;;;;;;;4.53;nan;101676.88;10362901;28;20069;-78
2023/10/16 18:38:41;;;;;;;12.18;4.97;;;;;;;4.55;nan;101680.53;10376339;28;19922;-78
2023/10/16 18:43:42;;;;;;;9.77;5.63;;;;;;;4.53;nan;101687.25;10364136;28;20034;-78
2023/10/16 18:48:43;;;;;;;12.77;8.15;;;;;;;4.56;nan;101671.97;10361599;28;20498;-78
2023/10/16 18:53:43;;;;;;;12.23;7.40;;;;;;;4.49;nan;101674.81;10360049;28;20052;-80
2023/10/16 18:58:45;;;;;;;17.58;7.55;;;;;;;4.45;nan;101676.25;10355111;28;20065;-78
2023/10/16 19:03:45;;;;;;;11.53;6.03;;;;;;;4.42;nan;101678.59;10354948;28;20077;-78
2023/10/16 19:08:46;;;;;;;13.57;8.25;;;;;;;4.28;nan;101677.38;10375973;28;20455;-78
2023/10/16 19:13:46;;;;;;;10.95;6.18;;;;;;;4.25;nan;101682.31;10376390;28;20068;-79
2023/10/16 19:18:47;;;;;;;10.05;5.25;;;;;;;4.25;nan;101684.88;10360254;28;20121;-79
2023/10/16 19:23:49;;;;;;;11.32;7.07;;;;;;;4.22;nan;101679.44;10359245;28;20188;-78
2023/10/16 19:28:49;;;;;;;14.20;7.20;;;;;;;4.25;nan;101674.53;10339858;28;20041;-78
2023/10/16 19:33:50;;;;;;;10.45;7.00;;;;;;;4.22;nan;101669.06;10352501;28;20430;-79
2023/10/16 19:38:50;;;;;;;12.05;8.00;;;;;;;4.11;nan;101683.72;10374162;28;20061;-79
2023/10/16 19:43:52;;;;;;;13.30;9.38;;;;;;;4.03;nan;101685.63;10370130;28;20053;-77
2023/10/16 19:48:53;;;;;;;16.15;9.13;;;;;;;3.95;nan;101676.28;10348338;28;20058;-79
2023/10/16 19:54:00;;;;;;;14.05;10.77;;;;;;;3.96;nan;101673.84;10352534;28;20150;-77
2023/10/16 19:59:00;;;;;;;21.20;12.90;;;;;;;4.06;nan;101674.63;10356322;28;20045;-77
2023/10/16 20:04:01;;;;;;;17.17;11.90;;;;;;;4.14;nan;101672.69;10358578;28;20631;-77
2023/10/16 20:09:05;;;;;;;23.25;13.38;;;;;;;4.18;nan;101678.28;10357544;28;20038;-77
2023/10/16 20:14:06;;;;;;;20.35;11.40;;;;;;;4.14;nan;101667.50;10350452;28;20080;-77
2023/10/16 20:19:07;;;;;;;18.83;12.63;;;;;;;4.17;nan;101663.53;10358015;28;20442;-77
2023/10/16 20:24:08;;;;;;;21.50;14.10;;;;;;;4.18;nan;101654.97;10351824;28;20058;-77
2023/10/16 20:29:08;;;;;;;17.30;11.20;;;;;;;4.14;nan;101658.06;10358463;28;20046;-77
2023/10/16 20:34:11;;;;;;;21.08;12.65;;;;;;;4.18;nan;101654.97;10336309;28;20052;-77
2023/10/16 20:39:11;;;;;;;;;;;;;;;4.11;nan;101660.41;10350825;28;20092;-77
2023/10/16 20:44:12;;;;;;;22.85;14.40;;;;;;;4.08;nan;101653.25;10359830;28;19928;-77
2023/10/16 20:49:14;;;;;;;21.38;13.70;;;;;;;4.11;nan;101653.50;10380406;28;20055;-77
2023/10/16 20:54:15;;;;;;;13.07;9.85;;;;;;;4.13;nan;101661.44;10358501;28;20101;-77
2023/10/16 20:59:15;;;;;;;24.60;18.13;;;;;;;4.06;nan;101659.97;10354721;28;20034;-77
2023/10/16 21:04:17;;;;;;;19.15;13.63;;;;;;;4.04;nan;101656.34;10357144;28;20065;-77
2023/10/16 21:09:18;;;;;;;38.40;22.50;;;;;;;4.02;nan;101652.72;10363503;28;20038;-78
2023/10/16 21:14:18;;;;;;;28.83;18.77;;;;;;;4.03;nan;101651.94;10366308;28;20048;-76
2023/10/16 21:19:19;;;;;;;30.58;18.63;;;;;;;4.10;nan;101643.03;10367970;28;20104;-76
2023/10/16 21:24:19;;;;;;;33.17;19.40;;;;;;;4.10;nan;101651.69;10338690;28;20125;-76
2023/10/16 21:29:20;;;;;;;37.22;20.48;;;;;;;4.10;nan;101646.53;10365955;28;20118;-76
2023/10/16 21:34:20;;;;;;;38.50;20.23;;;;;;;4.09;nan;101651.59;10361126;28;20127;-77
2023/10/16 21:39:21;;;;;;;30.30;18.63;;;;;;;4.10;nan;101658.59;10375942;28;20506;-77
2023/10/16 21:44:23;;;;;;;32.80;22.17;;;;;;;4.21;nan;101667.25;10365330;28;20034;-77
2023/10/16 21:49:25;;;;;;;43.65;25.42;;;;;;;4.13;nan;101656.25;10362208;28;20034;-77
2023/10/16 21:54:25;;;;;;;34.55;23.40;;;;;;;4.14;nan;101651.97;10369651;28;20381;-77
2023/10/16 21:59:29;;;;;;;36.03;22.13;;;;;;;4.08;nan;101647.19;10362414;28;20034;-77
2023/10/16 22:04:32;;;;;;;42.78;23.02;;;;;;;4.03;nan;101653.66;10363543;28;20084;-77
2023/10/16 22:09:37;;;;;;;35.95;23.30;;;;;;;4.03;nan;101644.16;10363800;28;20080;-77
2023/10/16 22:14:39;;;;;;;43.15;22.77;;;;;;;4.11;nan;101653.50;10373583;28;20517;-77
2023/10/16 22:19:40;;;;;;;47.50;28.38;;;;;;;4.11;nan;101660.41;10340616;28;20117;-77
2023/10/16 22:24:41;;;;;;;31.75;24.10;;;;;;;4.10;nan;101659.47;10359856;28;20033;-77
2023/10/16 22:29:41;;;;;;;44.15;25.17;;;;;;;4.08;nan;101647.19;10356713;28;20176;-78
2023/10/16 22:34:43;;;;;;;31.38;21.02;;;;;;;4.09;nan;101636.94;10375505;28;20050;-77
2023/10/16 22:39:44;;;;;;;35.28;19.45;;;;;;;4.18;nan;101620.34;10360972;28;20482;-77
2023/10/16 22:44:44;;;;;;;37.38;24.35;;;;;;;4.19;nan;101609.22;10357772;28;20124;-77
2023/10/16 22:49:45;;;;;;;42.72;24.58;;;;;;;4.19;nan;101607.56;10395233;28;20126;-77
2023/10/16 22:54:45;;;;;;;34.45;22.73;;;;;;;4.14;nan;101593.31;10344401;28;20052;-77
2023/10/16 22:59:47;;;;;;;43.25;25.58;;;;;;;4.24;nan;101585.53;10361833;28;20486;-77
2023/10/16 23:04:47;;;;;;;49.50;29.10;;;;;;;4.33;nan;101590.56;10358066;28;20042;-77
2023/10/16 23:09:51;;;;;;;46.25;30.85;;;;;;;4.36;nan;101597.72;10337614;28;20037;-77
2023/10/16 23:14:55;;;;;;;48.38;30.05;;;;;;;4.48;nan;101606.53;10357493;28;20034;-77
2023/10/16 23:19:59;;;;;;;51.28;31.00;;;;;;;4.48;nan;101600.41;10344490;28;20052;-77
2023/10/16 23:25:06;;;;;;;44.75;29.85;;;;;;;4.36;nan;101590.81;10360905;28;20044;-77
2023/10/16 23:30:07;;;;;;;44.15;29.70;;;;;;;4.29;nan;101598.84;10360623;28;20490;-77
2023/10/16 23:35:09;;;;;;;40.83;28.75;;;;;;;4.24;nan;101598.47;10342064;28;20397;-76
2023/10/16 23:40:41;;;;;;;35.63;27.20;;;;;;;4.24;nan;101588.13;10356495;28;20402;-77
2023/10/16 23:45:35;;;;;;;34.58;24.30;;;;;;;4.28;nan;101591.84;10356499;28;20045;-77
2023/10/16 23:50:39;;;;;;;45.28;28.85;;;;;;;4.46;nan;101599.38;10356451;28;20045;-77
2023/10/16 23:55:44;;;;;;;47.95;26.90;;;;;;;4.30;nan;101592.00;10358839;28;20439;-77
